• Join FlightAware (Why Join?)
  • Login
  • US Flag 
01:39PM EDT


 

Airport Tracker/Info


-or-


 

Live Flight TrackerFlight Track Log ✈ GJS3618 ✈ 10-May-2013 ✈ KDEN - KGRR

Flight Track Log - Related Links

Times and Time Zones

All times are in EDT time to prevent confusion due to time zone crossing. See the GJS3618 flight status page for this flight to view local times or setup timezone preferences in your user account.

Time Position Orientation Groundspeed Altitude Reporting Facility
EDT Latitude Longitude Course Direction KTS MPH feet Rate Location/Type
09:44PM 39.9167 -104.6500 72° East 195 224 7,600  Level Denver TRACON
09:45PM 39.9333 -104.5833 72° East 250 288 9,400 1,260 Climbing Denver TRACON
09:46PM 39.9333 -104.4667 90° East 313 360 10,100 780 Climbing Denver TRACON
09:47PM 39.9167 -104.3500 101° East 350 403 11,000 1,020 Climbing Denver TRACON
09:48PM 39.9011 -104.2578 102° East 348 400 12,000 720 Climbing Denver Center
09:49PM 39.9047 -104.1239 88° East 350 403 12,400 1,260 Climbing Denver Center
09:50PM 39.9436 -104.0111 66° East 344 396 14,600 2,100 Climbing Denver Center
09:51PM 39.9833 -103.8825 68° East 355 409 16,800 1,920 Climbing Denver Center
09:52PM 40.0208 -103.7622 68° East 361 415 18,600 1,500 Climbing Denver Center
09:53PM 40.0419 -103.6369 78° East 358 412 19,900 1,380 Climbing Denver Center
09:54PM 40.0678 -103.4847 77° East 382 440 21,500 1,440 Climbing Denver Center
09:55PM 40.0894 -103.3511 78° East 393 452 22,900 1,380 Climbing Denver Center
09:56PM 40.1147 -103.1917 78° East 401 461 24,400 1,260 Climbing Denver Center
09:57PM 40.1367 -103.0542 78° East 403 464 25,600 1,140 Climbing Denver Center
09:58PM 40.1592 -102.9164 78° East 406 467 26,800 1,140 Climbing Denver Center
09:59PM 40.1842 -102.7522 79° East 411 473 28,000 840 Climbing Denver Center
10:00PM 40.2061 -102.6103 79° East 414 476 28,600 540 Climbing Denver Center
10:01PM 40.2333 -102.4372 78° East 434 499 29,200 540 Climbing Denver Center
10:02PM 40.2689 -102.2911 72° East 440 506 29,800 660 Climbing Denver Center
10:03PM 40.3083 -102.1186 73° East 442 509 30,600 720 Climbing Denver Center
10:04PM 40.3436 -101.9717 72° East 443 510 31,300 720 Climbing Denver Center
10:05PM 40.3847 -101.7981 73° East 447 514 32,100 600 Climbing Denver Center
10:06PM 40.4125 -101.6742 74° East 445 512 32,600 660 Climbing Denver Center
10:07PM 40.4589 -101.4781 73° East 440 506 33,500 720 Climbing Denver Center
10:08PM 40.4911 -101.3303 74° East 441 507 34,200 720 Climbing Denver Center
10:09PM 40.5303 -101.1592 73° East 439 505 35,000 360 Climbing Denver Center
10:10PM 40.5631 -101.0144 73° East 434 499 35,000  Level Denver Center
10:12PM 40.5953 -100.8686 74° East 436 502 35,000  Level Denver Center
10:13PM 40.6333 -100.6986 74° East 440 506 35,000  Level Denver Center
10:14PM 40.6708 -100.5294 74° East 438 504 35,000  Level Denver Center
10:15PM 40.7028 -100.3839 74° East 436 502 35,000  Level Denver Center
10:16PM 40.7403 -100.2125 74° East 437 503 35,000  Level Denver Center
10:17PM 40.7717 -100.0639 74° East 440 506 35,000  Level Denver Center
10:18PM 40.8031 -99.9161 74° East 439 505 35,000  Level Denver Center
10:19PM 40.8475 -99.7119 74° East 440 506 35,000  Level Denver Center
10:20PM 40.8731 -99.5861 75° East 443 510 35,000  Level Denver Center
10:21PM 40.9131 -99.3983 74° East 443 510 35,000  Level Denver Center
10:22PM 40.9456 -99.2403 75° East 444 511 35,000  Level Denver Center
10:23PM 40.9814 -99.0656 75° East 445 512 35,000  Level Denver Center
10:23PM 40.9861 -99.0428 75° East 445 512 35,000  Level Minneapolis Center
10:24PM 41.0106 -98.9175 75° East 444 511 35,000  Level Minneapolis Center
10:25PM 41.0564 -98.6917 75° East 451 519 35,000  Level Minneapolis Center
10:26PM 41.0892 -98.5331 75° East 448 516 35,000  Level Minneapolis Center
10:27PM 41.1164 -98.3942 75° East 447 514 35,000 120 Level Minneapolis Center
10:28PM 41.1536 -98.2036 75° East 447 514 35,300 360 Climbing Minneapolis Center
10:29PM 41.1850 -98.0450 75° East 445 512 35,800 480 Climbing Minneapolis Center
10:30PM 41.2153 -97.8850 76° East 446 513 36,300 480 Climbing Minneapolis Center
10:31PM 41.2464 -97.7267 75° East 444 511 36,800 300 Climbing Minneapolis Center
10:32PM 41.2769 -97.5672 76° East 445 512 37,000 60 Climbing Minneapolis Center
10:33PM 41.3078 -97.4047 76° East 450 518 37,000  Level Minneapolis Center
10:35PM 41.3367 -97.2503 76° East 457 526 37,000  Level Minneapolis Center
10:36PM 41.3664 -97.0883 76° East 452 520 37,000  Level Minneapolis Center
10:37PM 41.3958 -96.9261 76° East 450 518 37,000  Level Minneapolis Center
10:38PM 41.4325 -96.7325 76° East 449 517 37,000  Level Minneapolis Center
10:39PM 41.4622 -96.5697 76° East 450 518 37,000  Level Minneapolis Center
10:40PM 41.4911 -96.4061 77° East 451 519 37,000  Level Minneapolis Center
10:41PM 41.5231 -96.2347 76° East 453 521 37,000  Level Minneapolis Center
10:42PM 41.5408 -96.0681 82° East 451 519 37,000 -240 Level Minneapolis Center
10:43PM 41.5614 -95.9006 81° East 456 525 36,600 -480 Descending Minneapolis Center
10:44PM 41.5783 -95.7278 82° East 464 534 36,100 -540 Descending Minneapolis Center
10:45PM 41.5958 -95.5522 82° East 471 542 35,600 -540 Descending Minneapolis Center
10:46PM 41.6258 -95.3850 76° East 465 535 35,100 -300 Descending Minneapolis Center
10:47PM 41.6553 -95.2147 77° East 468 539 35,000 -60 Descending Minneapolis Center
10:48PM 41.6825 -95.0503 77° East 458 527 35,000  Level Minneapolis Center
10:49PM 41.7097 -94.8869 77° East 451 519 35,000  Level Minneapolis Center
10:50PM 41.7369 -94.7217 78° East 453 521 35,000  Level Minneapolis Center
10:51PM 41.7661 -94.5511 77° East 466 536 35,000  Level Minneapolis Center
10:52PM 41.7942 -94.3814 77° East 467 537 35,000  Level Minneapolis Center
10:53PM 41.8231 -94.2078 77° East 476 548 35,000  Level Minneapolis Center
10:54PM 41.8503 -94.0328 78° East 478 550 35,000  Level Minneapolis Center
10:55PM 41.8819 -93.8389 78° East 479 551 35,000  Level Minneapolis Center
10:56PM 41.9094 -93.6653 78° East 478 550 35,000  Level Minneapolis Center
10:57PM 41.9367 -93.4911 78° East 478 550 35,000  Level Minneapolis Center
10:58PM 41.9642 -93.3142 78° East 479 551 35,000  Level Minneapolis Center
10:59PM 41.9919 -93.1397 78° East 481 554 35,000  Level Minneapolis Center
11:00PM 42.0219 -92.9269 79° East 487 560 35,000 -180 Level Minneapolis Center
11:01PM 42.0481 -92.7525 79° East 484 557 34,700 -420 Descending Minneapolis Center
11:02PM 42.0744 -92.5828 78° East 477 549 34,200 -540 Descending Minneapolis Center
11:02PM 42.0825 -92.5133 81° East 471 542 34,000 -180 Descending Chicago Center
11:03PM 42.1083 -92.3464 78° East 463 533 34,000  Level Chicago Center
11:04PM 42.1328 -92.1772 79° East 465 535 34,000  Level Chicago Center
11:05PM 42.1578 -92.0061 79° East 471 542 34,000  Level Chicago Center
11:06PM 42.1817 -91.8322 79° East 479 551 34,000  Level Chicago Center
11:08PM 42.2058 -91.6558 79° East 485 558 34,000  Level Chicago Center
11:09PM 42.2356 -91.4447 79° East 485 558 34,000  Level Chicago Center
11:10PM 42.2589 -91.2683 80° East 487 560 34,000  Level Chicago Center
11:11PM 42.2828 -91.0925 80° East 483 556 34,000  Level Chicago Center
11:12PM 42.3042 -90.9186 81° East 479 551 34,000  Level Chicago Center
11:13PM 42.3272 -90.7433 80° East 479 551 34,000  Level Chicago Center
11:14PM 42.3492 -90.5700 80° East 474 545 34,000  Level Chicago Center
11:15PM 42.3758 -90.3594 80° East 479 551 34,000  Level Chicago Center
11:16PM 42.3978 -90.1853 80° East 474 545 34,000  Level Chicago Center
11:17PM 42.4194 -90.0092 80° East 478 550 34,000  Level Chicago Center
11:18PM 42.4417 -89.8342 80° East 478 550 34,000  Level Chicago Center
11:19PM 42.4631 -89.6569 81° East 478 550 34,000  Level Chicago Center
11:20PM 42.4836 -89.4778 81° East 481 554 34,000  Level Chicago Center
11:21PM 42.5056 -89.2969 81° East 486 559 34,000  Level Chicago Center
11:22PM 42.5303 -89.0850 81° East 490 564 34,000  Level Chicago Center
11:23PM 42.5514 -88.9003 81° East 494 568 34,000  Level Chicago Center
11:24PM 42.5719 -88.7131 81° East 500 575 34,000  Level Chicago Center
11:25PM 42.5931 -88.5242 81° East 505 581 34,000  Level Chicago Center
11:26PM 42.6139 -88.3331 82° East 512 589 34,000 -60 Level Chicago Center
11:27PM 42.6342 -88.1417 82° East 513 590 33,900 -1,140 Descending Chicago Center
11:28PM 42.6539 -87.9550 82° East 503 579 31,800 -2,040 Descending Chicago Center
11:29PM 42.6725 -87.7725 82° East 493 567 29,800 -2,100 Descending Chicago Center
11:30PM 42.6911 -87.5936 82° East 481 554 27,600 -2,160 Descending Chicago Center
11:31PM 42.7081 -87.4261 82° East 452 520 25,500 -2,220 Descending Chicago Center
11:32PM 42.7267 -87.2406 82° East 437 503 23,100 -2,220 Descending Chicago Center
11:33PM 42.7411 -87.0811 83° East 428 493 21,000 -2,100 Descending Chicago Center
11:34PM 42.7578 -86.9144 82° East 444 511 18,900 -2,040 Descending Chicago Center
11:35PM 42.7717 -86.7611 83° East 416 479 16,900 -2,100 Descending Chicago Center
11:36PM 42.7856 -86.6158 83° East 393 452 14,700 -1,860 Descending Chicago Center
11:37PM 42.7983 -86.4825 83° East 362 417 13,200 -1,680 Descending Chicago Center
11:38PM 42.8092 -86.3631 83° East 328 377 11,300 -1,800 Descending Chicago Center
11:39PM 42.8064 -86.2469 92° East 314 361 9,600 -1,680 Descending Chicago Center
11:40PM 42.8081 -86.1414 89° East 284 327 8,000 -1,200 Descending Chicago Center
11:41PM 42.8175 -86.0489 82° East 258 297 7,200 -600 Descending Chicago Center
11:42PM 42.8306 -85.9461 80° East 236 272 6,800 -780 Descending Chicago Center
11:43PM 42.8400 -85.8597 81° East 234 269 5,700 -1,260 Descending Chicago Center
11:44PM 42.8497 -85.7756 81° East 229 264 4,300 -1,260 Descending Chicago Center
11:45PM 42.8592 -85.6936 81° East 224 258 3,200 -1,140 Descending Chicago Center
11:46PM 42.8664 -85.6228 82° East 208 239 2,100 -960 Descending Chicago Center
11:47PM 42.8728 -85.5694 81° East 171 197 1,300 -600 Descending Chicago Center
11:48PM 42.8794 -85.5100 81° East 156 180 900 -420 Descending Chicago Center
11:50PM 42.8667 -85.5167 90° East  Level FlightAware Approximate
11:57PM 42.8808 -85.5228 90° East  Level Estimated